createdAt,value
2023-01-19T00:00:56.301Z,1.20
2023-01-19T00:03:23.206Z,1.60
2023-01-19T00:05:50.211Z,1.40
2023-01-19T00:08:17.654Z,1.03
2023-01-19T00:10:51.059Z,1.60
2023-01-19T00:13:18.083Z,1.30
2023-01-19T00:15:45.060Z,1.73
2023-01-19T00:18:12.064Z,1.83
2023-01-19T00:20:40.780Z,1.73
2023-01-19T00:23:08.379Z,1.57
2023-01-19T00:25:36.270Z,1.50
2023-01-19T00:28:03.209Z,1.30
2023-01-19T00:30:30.253Z,1.33
2023-01-19T00:32:57.727Z,1.40
2023-01-19T00:35:25.199Z,1.00
2023-01-19T00:37:52.151Z,1.53
2023-01-19T00:40:19.140Z,1.60
2023-01-19T00:42:48.433Z,1.20
2023-01-19T00:45:18.973Z,1.20
2023-01-19T00:47:47.716Z,1.37
2023-01-19T00:50:19.799Z,1.67
2023-01-19T00:52:46.867Z,1.43
2023-01-19T00:55:15.829Z,1.10
2023-01-19T00:57:43.535Z,1.60
2023-01-19T01:00:13.043Z,1.73
2023-01-19T01:02:41.732Z,1.57
2023-01-19T01:05:09.568Z,1.50
2023-01-19T01:07:45.310Z,1.50
2023-01-19T01:10:18.851Z,2.00
2023-01-19T01:13:19.980Z,2.00
2023-01-19T01:15:33.729Z,2.20
2023-01-19T01:18:02.756Z,1.53
2023-01-19T01:20:30.586Z,1.73
2023-01-19T01:22:58.903Z,1.80
2023-01-19T01:25:27.987Z,2.37
2023-01-19T01:27:55.499Z,1.73
2023-01-19T01:30:22.665Z,2.00
2023-01-19T01:32:50.158Z,2.33
2023-01-19T01:35:17.275Z,1.53
2023-01-19T01:37:44.410Z,1.60
2023-01-19T01:40:14.277Z,1.70
2023-01-19T01:42:42.643Z,2.33
2023-01-19T01:45:39.974Z,1.40
2023-01-19T01:48:14.024Z,1.83
2023-01-19T01:51:11.068Z,1.87
2023-01-19T01:53:39.374Z,1.80
2023-01-19T01:56:12.912Z,1.77
2023-01-19T01:58:40.338Z,1.90
2023-01-19T02:01:26.796Z,2.10
2023-01-19T02:03:57.874Z,1.60
2023-01-19T02:06:25.815Z,1.90
2023-01-19T02:09:20.534Z,2.17
2023-01-19T02:12:05.873Z,1.17
2023-01-19T02:14:34.650Z,1.70
2023-01-19T02:17:01.709Z,1.60
2023-01-19T02:19:38.054Z,1.50
2023-01-19T02:22:14.273Z,1.50
2023-01-19T02:24:41.731Z,2.73
2023-01-19T02:27:09.707Z,2.17
2023-01-19T02:29:36.789Z,2.23
2023-01-19T02:32:05.818Z,2.33
2023-01-19T02:34:33.287Z,2.37
2023-01-19T02:37:06.814Z,2.43
2023-01-19T02:39:45.932Z,2.10
2023-01-19T02:42:19.072Z,2.20
2023-01-19T02:44:49.458Z,2.50
2023-01-19T02:47:16.789Z,2.20
2023-01-19T02:49:43.851Z,2.67
2023-01-19T02:52:20.264Z,2.40
2023-01-19T02:55:12.534Z,2.97
2023-01-19T02:57:51.286Z,2.60
2023-01-19T03:00:30.108Z,2.50
2023-01-19T03:03:19.344Z,2.57
2023-01-19T03:06:06.760Z,2.67
2023-01-19T03:08:57.604Z,2.37
2023-01-19T03:11:29.977Z,2.47
2023-01-19T03:14:22.030Z,2.80
2023-01-19T03:16:55.726Z,2.83
2023-01-19T03:19:27.308Z,1.70
2023-01-19T03:22:00.463Z,2.10
2023-01-19T03:24:31.707Z,2.10
2023-01-19T03:27:08.795Z,1.87
2023-01-19T03:29:39.203Z,1.83
2023-01-19T03:32:14.748Z,2.57
2023-01-19T03:34:44.286Z,2.67
2023-01-19T03:37:13.540Z,2.27
2023-01-19T03:39:40.743Z,2.67
2023-01-19T03:42:14.250Z,2.43
2023-01-19T03:44:42.810Z,2.60
2023-01-19T03:47:11.911Z,2.90
2023-01-19T03:49:41.453Z,2.90
2023-01-19T03:52:08.557Z,2.77
2023-01-19T03:54:35.930Z,3.13
2023-01-19T03:57:02.904Z,2.37
2023-01-19T03:59:29.819Z,2.63
2023-01-19T04:01:56.885Z,2.50
2023-01-19T04:04:25.606Z,2.90
2023-01-19T04:06:52.702Z,2.80
2023-01-19T04:09:20.254Z,2.50
2023-01-19T04:11:47.168Z,2.87
2023-01-19T04:14:14.089Z,2.20
2023-01-19T04:16:41.014Z,2.10
2023-01-19T04:19:07.928Z,2.70
2023-01-19T04:21:35.274Z,2.43
2023-01-19T04:24:03.221Z,2.53
2023-01-19T04:26:30.145Z,2.23
2023-01-19T04:28:57.964Z,2.30
2023-01-19T04:31:24.928Z,2.60
2023-01-19T04:33:51.815Z,2.80
2023-01-19T04:36:18.689Z,2.60
2023-01-19T04:38:46.732Z,2.47
2023-01-19T04:41:13.639Z,2.30
2023-01-19T04:43:41.008Z,2.60
2023-01-19T04:46:08.007Z,2.37
2023-01-19T04:48:34.994Z,2.77
2023-01-19T04:51:01.904Z,2.60
2023-01-19T04:53:28.850Z,2.30
2023-01-19T04:55:55.865Z,3.20
2023-01-19T04:58:23.083Z,3.80
2023-01-19T05:00:51.311Z,3.07
2023-01-19T05:03:19.551Z,3.03
2023-01-19T05:05:46.967Z,2.40
2023-01-19T05:08:14.076Z,2.60
2023-01-19T05:10:42.017Z,2.63
2023-01-19T05:13:08.925Z,2.20
2023-01-19T05:15:35.871Z,2.70
2023-01-19T05:18:02.733Z,2.60
2023-01-19T05:20:29.754Z,2.47
2023-01-19T05:22:56.681Z,2.40
2023-01-19T05:25:23.685Z,2.10
2023-01-19T05:27:50.621Z,2.77
2023-01-19T05:30:18.130Z,3.00
2023-01-19T05:32:45.049Z,2.67
2023-01-19T05:35:13.602Z,2.00
2023-01-19T05:37:41.084Z,2.23
2023-01-19T05:40:09.324Z,2.77
2023-01-19T05:42:37.027Z,2.03
2023-01-19T05:45:05.279Z,2.60
2023-01-19T05:47:32.309Z,2.23
2023-01-19T05:49:59.344Z,1.90
2023-01-19T05:52:26.344Z,2.70
2023-01-19T05:54:55.164Z,2.13
2023-01-19T05:57:22.673Z,1.97
2023-01-19T05:59:49.725Z,1.93
2023-01-19T06:02:16.799Z,2.30
2023-01-19T06:04:43.776Z,2.50
2023-01-19T06:07:10.688Z,1.93
2023-01-19T06:09:37.577Z,2.90
2023-01-19T06:12:04.873Z,2.17
2023-01-19T06:14:32.533Z,2.40
2023-01-19T06:17:00.650Z,2.67
2023-01-19T06:19:27.711Z,2.57
2023-01-19T06:21:54.632Z,1.80
2023-01-19T06:24:21.983Z,2.53
2023-01-19T06:26:49.119Z,2.43
2023-01-19T06:29:16.444Z,2.53
2023-01-19T06:31:43.439Z,2.00
2023-01-19T06:34:10.733Z,2.00
2023-01-19T06:36:38.600Z,2.00
2023-01-19T06:39:06.162Z,2.30
2023-01-19T06:41:33.924Z,2.10
2023-01-19T06:44:01.216Z,2.17
2023-01-19T06:46:28.287Z,1.87
2023-01-19T06:48:55.363Z,2.50
2023-01-19T06:51:23.311Z,2.37
2023-01-19T06:53:50.599Z,2.27
2023-01-19T06:56:17.580Z,1.87
2023-01-19T06:58:46.876Z,2.03
2023-01-19T07:01:14.030Z,2.30
2023-01-19T07:03:42.231Z,1.70
2023-01-19T07:06:09.229Z,1.83
2023-01-19T07:08:37.291Z,2.20
2023-01-19T07:11:24.592Z,2.70
2023-01-19T07:13:55.521Z,1.40
2023-01-19T07:16:23.613Z,1.80
2023-01-19T07:18:53.111Z,1.80
2023-01-19T07:21:20.029Z,1.73
2023-01-19T07:23:55.209Z,1.87
2023-01-19T07:26:25.129Z,1.80
2023-01-19T07:28:52.871Z,1.73
2023-01-19T07:31:22.550Z,2.27
2023-01-19T07:33:50.098Z,1.60
2023-01-19T07:36:19.472Z,1.90
2023-01-19T07:38:49.117Z,1.63
2023-01-19T07:41:16.122Z,1.23
2023-01-19T07:43:43.083Z,1.53
2023-01-19T07:46:10.057Z,1.37
2023-01-19T07:48:37.081Z,1.43
2023-01-19T07:51:15.943Z,1.60
2023-01-19T07:53:42.901Z,1.77
2023-01-19T07:56:10.312Z,1.90
2023-01-19T07:58:37.409Z,2.23
2023-01-19T08:01:09.720Z,1.60
2023-01-19T08:03:40.834Z,1.23
2023-01-19T08:06:14.242Z,1.20
2023-01-19T08:08:41.745Z,1.30
2023-01-19T08:11:08.641Z,1.10
2023-01-19T08:13:37.632Z,1.20
2023-01-19T08:16:05.077Z,1.10
2023-01-19T08:18:31.962Z,1.37
2023-01-19T08:21:02.563Z,1.37
2023-01-19T08:23:29.430Z,1.53
2023-01-19T08:25:56.378Z,1.60
2023-01-19T08:28:27.899Z,0.90
2023-01-19T08:30:55.487Z,1.43
2023-01-19T08:33:24.173Z,1.20
2023-01-19T08:35:54.942Z,1.40
2023-01-19T08:38:21.874Z,0.87
2023-01-19T08:40:52.081Z,1.20
2023-01-19T08:43:19.176Z,1.37
2023-01-19T08:45:51.731Z,1.10
2023-01-19T08:48:26.473Z,1.50
2023-01-19T08:50:53.701Z,3.70
2023-01-19T08:53:23.457Z,5.27
2023-01-19T08:55:54.634Z,4.60
2023-01-19T08:58:24.593Z,4.47
2023-01-19T09:00:52.796Z,4.73
2023-01-19T09:03:22.787Z,4.10
2023-01-19T09:05:52.376Z,5.00
2023-01-19T09:08:19.320Z,4.93
2023-01-19T09:10:51.301Z,4.63
2023-01-19T09:13:27.006Z,4.10
2023-01-19T09:15:56.137Z,3.47
2023-01-19T09:18:23.535Z,4.77
2023-01-19T09:20:50.831Z,3.93
2023-01-19T09:23:20.239Z,4.80
2023-01-19T09:25:48.094Z,4.00
2023-01-19T09:28:19.512Z,4.30
2023-01-19T09:30:48.273Z,4.30
2023-01-19T09:33:17.177Z,4.10
2023-01-19T09:35:45.685Z,4.40
2023-01-19T09:38:15.627Z,3.63
2023-01-19T09:40:50.129Z,4.07
2023-01-19T09:43:20.715Z,4.07
2023-01-19T09:46:14.393Z,4.20
2023-01-19T09:48:50.274Z,4.30
2023-01-19T09:51:23.086Z,4.33
2023-01-19T09:54:09.460Z,4.50
2023-01-19T09:56:36.493Z,4.18
2023-01-19T09:59:23.172Z,4.63
2023-01-19T10:02:07.851Z,4.73
2023-01-19T10:04:41.842Z,4.20
2023-01-19T10:07:20.727Z,4.78
2023-01-19T10:10:04.147Z,4.30
2023-01-19T10:12:51.012Z,3.63
2023-01-19T10:15:52.563Z,4.15
2023-01-19T10:18:35.831Z,4.03
2023-01-19T10:21:11.636Z,4.03
2023-01-19T10:23:57.142Z,3.85
2023-01-19T10:26:44.315Z,3.53
2023-01-19T10:29:35.301Z,3.83
2023-01-19T10:32:10.364Z,4.07
2023-01-19T10:34:37.341Z,3.85
2023-01-19T10:37:32.177Z,3.40
2023-01-19T10:40:14.802Z,3.90
2023-01-19T10:42:42.625Z,3.70
2023-01-19T10:45:21.159Z,3.93
2023-01-19T10:47:51.601Z,4.20
2023-01-19T10:50:27.664Z,4.10
2023-01-19T10:53:04.403Z,3.97
2023-01-19T10:55:35.662Z,4.03
2023-01-19T10:58:02.644Z,3.57
2023-01-19T11:00:34.880Z,4.37
2023-01-19T11:03:02.398Z,4.40
2023-01-19T11:05:35.300Z,4.60
2023-01-19T11:08:30.963Z,4.73
2023-01-19T11:11:08.795Z,4.43
2023-01-19T11:13:39.244Z,4.20
2023-01-19T11:16:10.447Z,4.07
2023-01-19T11:18:41.025Z,4.30
2023-01-19T11:21:14.139Z,5.03
2023-01-19T11:23:54.096Z,4.63
2023-01-19T11:26:33.309Z,4.30
2023-01-19T11:29:02.934Z,4.20
2023-01-19T11:31:29.849Z,4.47
2023-01-19T11:34:02.391Z,3.43
2023-01-19T11:36:32.460Z,3.00
2023-01-19T11:39:22.533Z,3.67
2023-01-19T11:41:57.204Z,2.50
2023-01-19T11:44:31.101Z,1.90
2023-01-19T11:47:04.989Z,1.60
2023-01-19T11:49:46.695Z,1.50
2023-01-19T11:52:33.669Z,1.30
2023-01-19T11:55:15.439Z,2.20
2023-01-19T11:57:52.842Z,1.77
2023-01-19T12:00:34.429Z,1.40
2023-01-19T12:03:23.923Z,1.97
2023-01-19T12:06:00.014Z,1.60
2023-01-19T12:08:39.641Z,1.33
2023-01-19T12:11:11.001Z,1.70
2023-01-19T12:13:40.653Z,1.23
2023-01-19T12:16:30.990Z,1.80
2023-01-19T12:19:03.663Z,1.53
2023-01-19T12:21:30.595Z,1.27
2023-01-19T12:24:23.801Z,1.53
2023-01-19T12:26:58.986Z,1.20
2023-01-19T12:29:34.754Z,1.50
2023-01-19T12:32:13.854Z,1.50
2023-01-19T12:35:01.328Z,1.27
2023-01-19T12:37:31.195Z,1.37
2023-01-19T12:40:08.369Z,1.20
2023-01-19T12:42:35.399Z,1.43
2023-01-19T12:45:08.735Z,1.30
2023-01-19T12:47:39.018Z,1.60
2023-01-19T12:50:19.034Z,1.10
2023-01-19T12:52:58.059Z,1.10
2023-01-19T12:55:31.570Z,1.60
2023-01-19T12:58:08.077Z,1.20
2023-01-19T13:00:40.475Z,1.10
2023-01-19T13:03:16.655Z,1.27
2023-01-19T13:05:43.477Z,0.90
2023-01-19T13:08:10.356Z,1.10
2023-01-19T13:10:57.123Z,1.10
2023-01-19T13:13:25.708Z,1.20
2023-01-19T13:15:56.174Z,1.10
2023-01-19T13:18:41.327Z,1.10
2023-01-19T13:21:10.161Z,1.33
2023-01-19T13:23:51.966Z,1.80
2023-01-19T13:26:51.525Z,1.03
2023-01-19T13:29:42.155Z,1.23
2023-01-19T13:32:19.687Z,1.33
2023-01-19T13:34:57.761Z,1.57
2023-01-19T13:37:36.000Z,1.27
2023-01-19T13:40:03.664Z,1.40
2023-01-19T13:42:36.186Z,1.30
2023-01-19T13:45:29.308Z,1.17
2023-01-19T13:47:59.605Z,0.70
2023-01-19T13:50:28.178Z,1.00
2023-01-19T13:52:59.225Z,1.10
2023-01-19T13:55:28.538Z,1.10
2023-01-19T13:57:56.324Z,1.20
2023-01-19T14:00:29.432Z,0.80
2023-01-19T14:03:18.613Z,0.90
2023-01-19T14:05:45.714Z,1.20
2023-01-19T14:08:18.082Z,1.40
2023-01-19T14:10:46.106Z,1.40
2023-01-19T14:13:18.707Z,1.13
2023-01-19T14:15:47.624Z,0.83
2023-01-19T14:18:14.486Z,0.80
2023-01-19T14:20:42.272Z,1.20
2023-01-19T14:23:49.375Z,0.70
2023-01-19T14:26:46.088Z,0.80
2023-01-19T14:29:22.188Z,0.60
2023-01-19T14:32:01.243Z,0.90
2023-01-19T14:34:43.279Z,0.73
2023-01-19T14:37:28.137Z,0.60
2023-01-19T14:39:57.875Z,0.80
2023-01-19T14:42:33.410Z,0.70
2023-01-19T14:45:02.822Z,0.67
2023-01-19T14:47:38.606Z,0.73
2023-01-19T14:50:25.212Z,1.30
2023-01-19T14:52:59.499Z,1.20
2023-01-19T14:55:38.174Z,1.00
2023-01-19T14:58:16.609Z,1.80
2023-01-19T15:00:47.090Z,1.80
2023-01-19T15:03:14.853Z,1.30
2023-01-19T15:05:48.355Z,1.27
2023-01-19T15:08:25.208Z,1.20
2023-01-19T15:10:52.136Z,1.37
2023-01-19T15:13:20.878Z,0.67
2023-01-19T15:15:49.878Z,1.30
2023-01-19T15:18:22.374Z,1.60
2023-01-19T15:20:49.332Z,1.00
2023-01-19T15:23:19.213Z,0.90
2023-01-19T15:25:46.260Z,0.93
2023-01-19T15:28:20.053Z,0.70
2023-01-19T15:30:47.231Z,0.80
2023-01-19T15:33:22.319Z,0.80
2023-01-19T15:35:49.634Z,0.67
2023-01-19T15:38:19.493Z,0.70
2023-01-19T15:40:51.188Z,0.63
2023-01-19T15:43:18.776Z,0.90
2023-01-19T15:45:57.377Z,0.93
2023-01-19T15:48:24.320Z,1.07
2023-01-19T15:50:51.220Z,1.50
2023-01-19T15:53:20.269Z,1.17
2023-01-19T15:56:00.038Z,1.07
2023-01-19T15:58:26.979Z,0.93
2023-01-19T16:00:56.127Z,1.03
2023-01-19T16:03:24.093Z,1.20
2023-01-19T16:05:51.038Z,1.67
2023-01-19T16:08:18.002Z,1.80
2023-01-19T16:10:47.498Z,1.50
2023-01-19T16:13:14.411Z,1.83
2023-01-19T16:15:42.559Z,1.20
2023-01-19T16:18:12.546Z,1.50
2023-01-19T16:20:39.594Z,1.27
2023-01-19T16:23:15.205Z,1.13
2023-01-19T16:25:42.733Z,1.00
2023-01-19T16:28:12.139Z,0.70
2023-01-19T16:30:39.257Z,1.37
2023-01-19T16:33:06.425Z,1.10
2023-01-19T16:35:33.356Z,1.10
2023-01-19T16:38:00.242Z,0.97
2023-01-19T16:40:27.171Z,0.83
2023-01-19T16:42:54.054Z,0.90
2023-01-19T16:45:20.998Z,1.00
2023-01-19T16:47:50.704Z,0.90
2023-01-19T16:50:17.902Z,0.90
2023-01-19T16:52:45.391Z,0.70
2023-01-19T16:55:16.645Z,0.90
2023-01-19T16:57:46.001Z,1.00
2023-01-19T17:00:13.821Z,0.80
2023-01-19T17:02:40.904Z,1.10
2023-01-19T17:07:49.048Z,1.90
2023-01-19T17:10:18.291Z,1.50
2023-01-19T17:12:45.181Z,1.30
2023-01-19T17:15:13.976Z,2.47
2023-01-19T17:17:42.884Z,2.00
2023-01-19T17:20:10.869Z,1.57
2023-01-19T17:22:41.081Z,2.07
2023-01-19T17:25:08.473Z,6.80
2023-01-19T17:27:36.860Z,7.20
2023-01-19T17:30:04.585Z,3.93
2023-01-19T17:32:34.021Z,2.90
2023-01-19T17:35:03.260Z,2.60
2023-01-19T17:37:30.247Z,3.17
2023-01-19T17:39:59.498Z,2.10
2023-01-19T17:42:28.426Z,2.30
2023-01-19T17:44:55.369Z,2.37
2023-01-19T17:47:25.584Z,2.37
2023-01-19T17:49:52.501Z,2.60
2023-01-19T17:52:19.461Z,1.97
2023-01-19T17:54:46.779Z,2.43
2023-01-19T17:57:14.664Z,2.33
2023-01-19T17:59:45.808Z,2.30
2023-01-19T18:02:15.478Z,1.87
2023-01-19T18:04:42.596Z,2.57
2023-01-19T18:07:09.480Z,2.57
2023-01-19T18:09:36.434Z,2.67
2023-01-19T18:12:04.633Z,2.47
2023-01-19T18:14:31.531Z,2.83
2023-01-19T18:16:58.588Z,2.73
2023-01-19T18:19:25.521Z,3.07
2023-01-19T18:21:55.372Z,2.93
2023-01-19T18:24:22.257Z,3.17
2023-01-19T18:26:49.217Z,3.23
2023-01-19T18:29:19.428Z,3.00
2023-01-19T18:31:46.413Z,6.17
2023-01-19T18:34:14.381Z,3.83
2023-01-19T18:36:41.281Z,3.90
2023-01-19T18:39:09.526Z,3.07
2023-01-19T18:41:41.769Z,3.17
2023-01-19T18:44:11.745Z,3.30
2023-01-19T18:46:39.277Z,3.07
2023-01-19T18:49:06.435Z,2.67
2023-01-19T18:51:33.348Z,2.57
2023-01-19T18:54:01.204Z,2.80
2023-01-19T18:56:28.235Z,2.80
2023-01-19T18:58:55.345Z,2.60
2023-01-19T19:01:24.834Z,2.90
2023-01-19T19:03:58.432Z,2.90
2023-01-19T19:06:27.225Z,2.90
2023-01-19T19:08:59.463Z,2.70
2023-01-19T19:11:27.237Z,2.97
2023-01-19T19:13:56.535Z,2.87
2023-01-19T19:16:23.659Z,3.30
2023-01-19T19:18:50.807Z,2.20
2023-01-19T19:21:19.068Z,1.70
2023-01-19T19:23:56.700Z,1.40
2023-01-19T19:26:28.410Z,1.40
2023-01-19T19:28:55.624Z,1.77
2023-01-19T19:31:29.379Z,1.87
2023-01-19T19:33:57.623Z,2.40
2023-01-19T19:36:25.880Z,2.47
2023-01-19T19:38:52.806Z,2.60
2023-01-19T19:41:22.212Z,3.80
2023-01-19T19:43:49.510Z,2.27
2023-01-19T19:46:20.114Z,1.70
2023-01-19T19:48:48.491Z,1.70
2023-01-19T19:51:19.716Z,1.80
2023-01-19T19:53:50.177Z,1.90
2023-01-19T19:56:21.463Z,1.67
2023-01-19T19:58:49.691Z,1.50
2023-01-19T20:01:33.768Z,1.40
2023-01-19T20:04:08.968Z,1.43
2023-01-19T20:06:42.862Z,2.13
2023-01-19T20:09:12.781Z,2.13
2023-01-19T20:11:45.106Z,1.70
2023-01-19T20:14:13.121Z,1.70
2023-01-19T20:16:40.304Z,1.70
2023-01-19T20:19:07.868Z,2.00
2023-01-19T20:21:41.810Z,1.70
2023-01-19T20:24:17.846Z,1.90
2023-01-19T20:26:48.967Z,1.50
2023-01-19T20:29:31.025Z,2.00
2023-01-19T20:34:38.954Z,1.97
2023-01-19T20:37:06.993Z,2.70
2023-01-19T20:39:37.379Z,2.43
2023-01-19T20:42:05.552Z,2.23
2023-01-19T20:44:32.585Z,2.70
2023-01-19T20:47:01.869Z,2.47
2023-01-19T20:49:29.858Z,2.30
2023-01-19T20:51:56.848Z,2.90
2023-01-19T20:54:27.959Z,2.73
2023-01-19T20:56:58.082Z,2.87
2023-01-19T20:59:25.008Z,3.37
2023-01-19T21:01:52.273Z,3.23
2023-01-19T21:04:20.671Z,3.23
2023-01-19T21:06:47.537Z,3.40
2023-01-19T21:09:14.527Z,4.03
2023-01-19T21:11:41.436Z,3.80
2023-01-19T21:14:15.973Z,3.77
2023-01-19T21:16:43.018Z,4.00
2023-01-19T21:19:11.217Z,4.27
2023-01-19T21:21:38.107Z,3.77
2023-01-19T21:24:05.395Z,4.27
2023-01-19T21:26:33.600Z,5.00
2023-01-19T21:29:04.159Z,4.10
2023-01-19T21:31:31.506Z,4.90
2023-01-19T21:33:59.220Z,3.57
2023-01-19T21:36:26.759Z,2.43
2023-01-19T21:38:55.704Z,3.83
2023-01-19T21:41:22.834Z,3.30
2023-01-19T21:43:52.462Z,2.80
2023-01-19T21:46:32.243Z,1.83
2023-01-19T21:49:04.809Z,2.00
2023-01-19T21:51:34.757Z,3.77
2023-01-19T21:54:03.304Z,5.50
2023-01-19T21:56:31.621Z,6.70
2023-01-19T21:59:02.261Z,6.43
2023-01-19T22:01:32.281Z,7.20
2023-01-19T22:04:01.190Z,6.37
2023-01-19T22:06:31.471Z,4.60
2023-01-19T22:08:58.559Z,5.33
2023-01-19T22:11:25.525Z,5.07
2023-01-19T22:13:52.976Z,2.83
2023-01-19T22:16:21.879Z,2.73
2023-01-19T22:18:57.635Z,2.87
2023-01-19T22:21:29.794Z,4.50
2023-01-19T22:23:59.202Z,5.63
2023-01-19T22:26:27.491Z,8.80
2023-01-19T22:28:56.179Z,10.50
2023-01-19T22:31:24.374Z,10.80
2023-01-19T22:33:52.672Z,12.87
2023-01-19T22:36:22.610Z,14.07
2023-01-19T22:38:55.216Z,13.60
2023-01-19T22:41:26.087Z,12.90
2023-01-19T22:43:55.349Z,12.13
2023-01-19T22:46:27.927Z,12.10
2023-01-19T22:48:55.776Z,13.40
2023-01-19T22:51:24.631Z,12.57
2023-01-19T22:53:52.048Z,12.63
2023-01-19T22:56:28.587Z,11.67
2023-01-19T22:58:55.996Z,11.13
2023-01-19T23:01:28.550Z,12.30
2023-01-19T23:03:58.093Z,13.00
2023-01-19T23:06:27.623Z,14.27
2023-01-19T23:08:56.494Z,12.57
2023-01-19T23:11:26.582Z,14.13
2023-01-19T23:13:54.282Z,12.57
2023-01-19T23:16:23.756Z,13.00
2023-01-19T23:18:54.183Z,13.00
2023-01-19T23:21:23.509Z,12.27
2023-01-19T23:23:54.819Z,12.33
2023-01-19T23:26:25.514Z,12.03
2023-01-19T23:29:01.724Z,12.93
2023-01-19T23:31:33.087Z,13.43
2023-01-19T23:34:02.824Z,12.10
2023-01-19T23:36:31.804Z,11.73
2023-01-19T23:39:08.615Z,10.87
2023-01-19T23:41:35.650Z,11.50
2023-01-19T23:44:03.249Z,11.83
2023-01-19T23:46:30.288Z,12.40
2023-01-19T23:48:59.639Z,11.50
2023-01-19T23:51:29.405Z,12.07
2023-01-19T23:53:57.802Z,12.40
2023-01-19T23:56:30.851Z,13.10
2023-01-19T23:59:05.673Z,13.07
